KBLV/BLV METAR and TAF weather

Enter ICAO airport designator
Station Type Date Time Source
KBLV METAR 2022/12/04 05:55 UTC NOAA

KBLV 040555Z 00000KT 10SM SCT160 M03/M09 A3045 RMK AO2A SLPNO ALSTG ESTMD 11016 21028 401241028 57017 RVRNO TSNO $


Station Type Date Time Source
KBLV Decoded METAR 2022/12/04 05:55 UTC NOAA

Belleville, Scott AFB/MidAmerica Airport, IL, United States (KBLV) 38-33N 089-51W
Dec 04, 2022 - 12:55 AM EST / 2022.12.04 0555 UTC
Wind: Calm:0
Visibility: 10 mile(s):0
Sky conditions: partly cloudy
Temperature: 26 F (-3 C)
Dew Point: 15 F (-9 C)
Relative Humidity: 63%
Pressure (altimeter): 30.45 in. Hg (1031 hPa)
Pressure tendency: 0.05 inches (1.7 hPa) lower than three hours ago
ob: KBLV 040555Z 00000KT 10SM SCT160 M03/M09 A3045 RMK AO2A SLPNO ALSTG ESTMD 11016 21028 401241028 57017 RVRNO TSNO
cycle: 6

Station Type Date Time Source
KBLV TAF 2022/12/04 00:09 UTC NOAA

TAF KBLV 040000Z 0400/0506 VRB06KT 9999 BKN150 QNH3049INS
BECMG 0405/0406 19006KT 9999 OVC200 QNH3045INS
BECMG 0417/0418 21006KT 9999 SCT200 QNH3030INS TX05/0420Z TNM04/0406Z

Example: see airport list